Time;durP1;ratioP1;P1;durP2;ratioP2;P2;SDS_P1;SDS_P2;PMS_P1;PMS_P2;Temp;Humidity;BMP_temperature;BMP_pressure;BME280_temperature;BME280_humidity;BME280_pressure;Samples;Min_cycle;Max_cycle;Signal;HPM_P1;HPM_P2
2023/04/12 00:00:23;;;;;;;9.45;1.95;;;7.10;99.90;;;;;;5111050;27;20043;-90
2023/04/12 00:02:52;;;;;;;9.82;2.20;;;6.50;99.90;;;;;;5095138;28;20465;-90
2023/04/12 00:05:21;;;;;;;14.70;2.33;;;6.50;99.90;;;;;;5107514;27;20043;-90
2023/04/12 00:07:51;;;;;;;15.20;2.45;;;6.50;99.90;;;;;;5093904;28;20067;-90
2023/04/12 00:10:18;;;;;;;11.93;2.33;;;6.50;99.90;;;;;;5094314;28;20045;-90
2023/04/12 00:12:45;;;;;;;13.57;2.50;;;6.50;99.90;;;;;;5104413;27;20118;-91
2023/04/12 00:15:11;;;;;;;9.52;2.25;;;6.50;99.90;;;;;;5100618;27;20038;-92
2023/04/12 00:17:37;;;;;;;14.45;2.40;;;6.70;99.90;;;;;;5104310;28;20051;-92
2023/04/12 00:20:04;;;;;;;12.52;3.08;;;6.50;99.90;;;;;;5097515;27;20063;-89
2023/04/12 00:22:30;;;;;;;9.00;2.58;;;6.60;99.90;;;;;;5113010;27;20645;-90
2023/04/12 00:24:56;;;;;;;12.23;2.75;;;7.00;99.90;;;;;;5101510;27;20114;-89
2023/04/12 00:27:22;;;;;;;12.27;2.92;;;6.80;99.90;;;;;;5103469;28;20051;-90
2023/04/12 00:29:48;;;;;;;19.40;2.80;;;6.70;99.90;;;;;;5093838;28;20395;-90
2023/04/12 00:32:13;;;;;;;14.05;2.88;;;6.50;99.90;;;;;;5093778;28;20122;-91
2023/04/12 00:34:39;;;;;;;15.10;2.70;;;6.60;99.90;;;;;;5093128;28;20042;-90
2023/04/12 00:37:05;;;;;;;18.00;2.67;;;6.60;99.90;;;;;;5092708;28;20055;-90
2023/04/12 00:39:30;;;;;;;8.98;2.15;;;6.60;99.90;;;;;;5093148;28;20482;-90
2023/04/12 00:41:56;;;;;;;11.60;2.63;;;6.60;99.90;;;;;;5094191;28;20067;-90
2023/04/12 00:44:22;;;;;;;13.95;2.13;;;7.20;99.90;;;;;;5089610;28;20044;-91
2023/04/12 00:46:48;;;;;;;12.48;2.42;;;6.90;99.90;;;;;;5084638;28;20044;-90
2023/04/12 00:49:14;;;;;;;9.63;2.15;;;6.70;99.90;;;;;;5094259;28;20042;-90
2023/04/12 00:51:40;;;;;;;12.55;2.50;;;6.80;99.90;;;;;;5092156;28;20482;-91
2023/04/12 00:54:06;;;;;;;9.05;2.45;;;6.80;99.90;;;;;;5076303;28;20040;-90
2023/04/12 00:56:33;;;;;;;14.43;2.53;;;6.80;99.90;;;;;;5080173;28;20048;-90
2023/04/12 00:59:00;;;;;;;14.80;2.53;;;6.90;99.90;;;;;;5091726;28;20046;-91
2023/04/12 01:01:27;;;;;;;13.35;2.80;;;6.90;99.90;;;;;;5093030;28;20043;-91
2023/04/12 01:03:59;;;;;;;19.30;3.30;;;6.90;99.90;;;;;;5092849;28;20045;-91
2023/04/12 01:06:56;;;;;;;11.05;2.38;;;7.50;99.90;;;;;;5092735;28;20125;-90
2023/04/12 01:09:35;;;;;;;22.00;3.60;;;6.90;99.90;;;;;;5081767;28;20139;-91
2023/04/12 01:12:04;;;;;;;12.90;2.80;;;6.90;99.90;;;;;;5075273;28;20044;-91
2023/04/12 01:14:43;;;;;;;9.35;2.45;;;6.90;99.90;;;;;;5083517;28;20467;-90
2023/04/12 01:17:13;;;;;;;11.63;3.88;;;7.00;99.90;;;;;;5088687;28;20043;-90
2023/04/12 01:19:57;;;;;;;14.80;3.03;;;7.00;99.90;;;;;;5071966;28;20040;-91
2023/04/12 01:23:02;;;;;;;11.02;2.78;;;6.90;99.90;;;;;;5085413;28;20130;-90
2023/04/12 01:25:42;;;;;;;17.00;3.38;;;7.00;99.90;;;;;;5080400;28;20058;-91
2023/04/12 01:28:10;;;;;;;11.50;2.90;;;6.90;99.90;;;;;;5107101;27;20104;-91
2023/04/12 01:30:38;;;;;;;14.13;3.15;;;7.00;99.90;;;;;;5093163;28;20079;-91
2023/04/12 01:33:06;;;;;;;14.27;3.40;;;7.00;99.90;;;;;;5092956;28;20051;-91
2023/04/12 01:35:32;;;;;;;13.13;2.65;;;7.00;99.90;;;;;;5091552;28;20052;-90
2023/04/12 01:37:59;;;;;;;20.10;3.05;;;7.60;99.90;;;;;;5110234;27;20062;-90
2023/04/12 01:40:27;;;;;;;11.55;2.63;;;7.10;99.90;;;;;;5102029;28;20043;-90
2023/04/12 01:43:06;;;;;;;10.25;2.40;;;7.40;99.90;;;;;;5096966;27;20043;-90
2023/04/12 01:45:32;;;;;;;11.07;3.00;;;7.10;99.90;;;;;;5112939;27;20107;-90
2023/04/12 01:47:58;;;;;;;18.23;3.13;;;7.00;99.90;;;;;;5093489;28;20123;-91
2023/04/12 01:50:34;;;;;;;11.65;2.28;;;7.10;99.90;;;;;;5092681;28;20047;-90
2023/04/12 01:53:17;;;;;;;14.85;2.85;;;7.10;99.90;;;;;;5100038;27;20046;-90
2023/04/12 01:55:45;;;;;;;12.85;2.65;;;7.10;99.90;;;;;;5098662;27;20058;-90
2023/04/12 01:58:13;;;;;;;15.95;2.80;;;7.10;99.90;;;;;;5113028;27;20096;-90
2023/04/12 02:00:41;;;;;;;11.93;3.50;;;7.10;99.90;;;;;;5094676;28;20043;-90
2023/04/12 02:03:08;;;;;;;14.20;2.80;;;7.20;99.90;;;;;;5103987;27;20118;-90
2023/04/12 02:05:34;;;;;;;14.52;2.83;;;7.20;99.90;;;;;;5093751;28;20031;-90
2023/04/12 02:08:02;;;;;;;15.52;2.67;;;7.40;99.90;;;;;;5092278;28;20040;-90
2023/04/12 02:10:29;;;;;;;13.35;2.72;;;7.30;99.90;;;;;;5096304;27;20056;-91
2023/04/12 02:12:58;;;;;;;9.07;2.38;;;7.30;99.90;;;;;;5101955;28;20093;-91
2023/04/12 02:15:25;;;;;;;11.43;3.00;;;7.30;99.90;;;;;;5091127;28;20054;-91
2023/04/12 02:17:52;;;;;;;11.82;2.60;;;7.40;99.90;;;;;;5104040;28;20043;-90
2023/04/12 02:20:19;;;;;;;9.15;2.72;;;7.40;99.90;;;;;;5107118;28;20043;-90
2023/04/12 02:22:45;;;;;;;11.10;2.58;;;7.40;99.90;;;;;;5090898;28;20100;-91
2023/04/12 02:25:11;;;;;;;17.17;2.75;;;7.60;99.90;;;;;;5112020;28;20039;-91
2023/04/12 02:27:37;;;;;;;16.00;2.83;;;7.50;99.90;;;;;;5099549;28;20052;-90
2023/04/12 02:30:04;;;;;;;11.70;2.75;;;7.60;99.90;;;;;;5105432;28;20513;-89
2023/04/12 02:32:29;;;;;;;17.00;2.45;;;7.50;99.90;;;;;;5092126;28;20051;-90
2023/04/12 02:34:57;;;;;;;12.88;2.15;;;7.50;99.90;;;;;;5105539;28;20046;-91
2023/04/12 02:37:26;;;;;;;12.32;3.28;;;7.60;99.90;;;;;;5094208;28;20093;-90
2023/04/12 02:39:55;;;;;;;16.35;2.72;;;7.90;99.90;;;;;;5112230;28;20050;-90
2023/04/12 02:42:22;;;;;;;13.52;2.70;;;7.60;99.90;;;;;;5111568;28;20075;-90
2023/04/12 02:44:47;;;;;;;10.70;2.72;;;7.70;99.90;;;;;;5095754;28;20036;-90
2023/04/12 02:47:13;;;;;;;12.63;2.75;;;7.90;99.90;;;;;;5097714;28;20051;-90
2023/04/12 02:49:39;;;;;;;15.40;3.15;;;7.80;99.90;;;;;;5098076;28;20043;-89
2023/04/12 02:52:05;;;;;;;7.72;2.10;;;8.00;99.90;;;;;;5098273;28;20032;-90
2023/04/12 02:54:31;;;;;;;12.77;2.72;;;7.60;99.90;;;;;;5105480;28;20063;-89
2023/04/12 02:56:56;;;;;;;11.82;2.60;;;7.60;99.90;;;;;;5104242;28;20546;-89
2023/04/12 02:59:24;;;;;;;13.32;2.67;;;7.60;99.90;;;;;;5094314;28;20039;-89
2023/04/12 03:01:49;;;;;;;8.80;2.20;;;7.60;99.90;;;;;;5104999;28;20053;-89
2023/04/12 03:04:15;;;;;;;9.07;2.40;;;7.60;99.90;;;;;;5093299;28;20039;-88
2023/04/12 03:06:51;;;;;;;9.93;2.45;;;7.90;99.90;;;;;;5104041;28;20131;-89
2023/04/12 03:09:17;;;;;;;9.05;2.25;;;7.60;99.90;;;;;;5103367;28;20126;-88
2023/04/12 03:11:45;;;;;;;12.82;2.35;;;7.60;99.90;;;;;;5103431;28;20035;-88
2023/04/12 03:14:10;;;;;;;12.55;3.40;;;7.60;99.90;;;;;;5091050;28;20040;-89
2023/04/12 03:16:36;;;;;;;8.48;2.17;;;7.90;99.90;;;;;;5092289;28;20123;-88
2023/04/12 03:19:03;;;;;;;9.32;2.30;;;7.60;99.90;;;;;;5103255;28;20043;-89
2023/04/12 03:21:28;;;;;;;10.52;2.53;;;7.50;99.90;;;;;;5104761;28;20066;-89
2023/04/12 03:23:54;;;;;;;13.02;2.55;;;7.60;99.90;;;;;;5111614;28;20478;-89
2023/04/12 03:26:20;;;;;;;8.75;2.50;;;7.60;99.90;;;;;;5110149;28;20476;-89
2023/04/12 03:28:46;;;;;;;8.00;2.10;;;7.60;99.90;;;;;;5111951;28;20153;-89
2023/04/12 03:31:12;;;;;;;10.30;2.53;;;7.60;99.90;;;;;;5097027;28;20079;-90
2023/04/12 03:33:38;;;;;;;9.63;2.20;;;7.60;99.90;;;;;;5098546;27;20483;-90
2023/04/12 03:36:05;;;;;;;11.23;2.20;;;7.70;99.90;;;;;;5107441;27;20035;-89
2023/04/12 03:38:30;;;;;;;6.18;2.00;;;7.60;99.90;;;;;;5101572;27;20491;-87
2023/04/12 03:40:56;;;;;;;9.10;1.83;;;7.70;99.90;;;;;;5101686;27;20092;-89
2023/04/12 03:43:22;;;;;;;11.07;2.05;;;7.70;99.90;;;;;;5111922;27;20067;-89
2023/04/12 03:45:48;;;;;;;9.57;2.08;;;7.70;99.90;;;;;;5113870;27;20092;-88
2023/04/12 03:48:15;;;;;;;9.57;1.95;;;7.70;99.90;;;;;;5093792;28;20032;-88
2023/04/12 03:50:43;;;;;;;11.00;1.95;;;7.70;99.90;;;;;;5096177;27;20040;-87
2023/04/12 03:53:10;;;;;;;10.35;1.65;;;7.70;99.90;;;;;;5113806;27;20039;-87
2023/04/12 03:55:37;;;;;;;9.82;2.28;;;7.70;99.90;;;;;;5099406;28;20035;-88
2023/04/12 03:58:03;;;;;;;9.13;1.83;;;7.70;99.90;;;;;;5103145;27;20046;-88
2023/04/12 04:00:31;;;;;;;11.15;2.53;;;7.70;99.90;;;;;;5112436;27;20073;-88
2023/04/12 04:03:01;;;;;;;11.52;1.80;;;7.70;99.90;;;;;;5105838;28;20131;-88
2023/04/12 04:05:28;;;;;;;9.15;2.35;;;7.70;99.90;;;;;;5110338;27;20043;-87
2023/04/12 04:07:55;;;;;;;6.78;1.60;;;7.70;99.90;;;;;;5114295;27;20116;-87
2023/04/12 04:10:21;;;;;;;7.20;1.65;;;7.70;99.90;;;;;;5099748;27;20099;-88
2023/04/12 04:12:46;;;;;;;10.18;2.13;;;7.60;99.90;;;;;;5114295;27;20035;-87
2023/04/12 04:15:14;;;;;;;8.20;1.77;;;7.60;99.90;;;;;;5112546;27;20027;-88
2023/04/12 04:17:41;;;;;;;8.90;1.88;;;7.60;99.90;;;;;;5103448;28;20465;-88
2023/04/12 04:20:08;;;;;;;8.57;1.95;;;8.00;99.90;;;;;;5093494;28;20501;-87
2023/04/12 04:22:34;;;;;;;8.98;1.70;;;7.60;99.90;;;;;;5091409;28;20415;-87
2023/04/12 04:25:01;;;;;;;6.72;1.75;;;7.60;99.90;;;;;;5094057;28;20035;-88
2023/04/12 04:27:29;;;;;;;11.38;2.40;;;8.10;99.90;;;;;;5092267;28;20047;-88
2023/04/12 04:29:58;;;;;;;10.23;2.50;;;7.60;99.90;;;;;;5093215;28;20100;-89
2023/04/12 04:32:24;;;;;;;10.63;2.22;;;7.80;99.90;;;;;;5092479;28;20039;-89
2023/04/12 04:34:50;;;;;;;9.75;2.42;;;7.60;99.90;;;;;;5079399;28;20067;-88
2023/04/12 04:37:17;;;;;;;11.57;2.83;;;7.80;99.90;;;;;;5092672;28;20036;-89
2023/04/12 04:39:43;;;;;;;9.50;2.88;;;7.70;99.90;;;;;;5093838;28;20040;-89
2023/04/12 04:42:09;;;;;;;6.45;1.95;;;7.50;99.90;;;;;;5093300;28;20096;-88
2023/04/12 04:44:36;;;;;;;8.77;2.50;;;7.60;99.90;;;;;;5092864;28;20051;-89
2023/04/12 04:47:02;;;;;;;8.93;2.53;;;7.50;99.90;;;;;;5093932;28;20050;-89
2023/04/12 04:49:28;;;;;;;6.80;2.58;;;7.40;99.90;;;;;;5092003;28;20533;-90
2023/04/12 04:51:53;;;;;;;11.38;2.75;;;7.50;99.90;;;;;;5079744;28;20036;-89
2023/04/12 04:54:19;;;;;;;10.00;3.08;;;7.60;99.90;;;;;;5093027;28;20102;-90
2023/04/12 04:56:45;;;;;;;9.77;3.00;;;7.40;99.90;;;;;;5092767;28;20039;-89
2023/04/12 04:59:11;;;;;;;15.75;3.17;;;7.40;99.90;;;;;;5093952;28;20043;-91
2023/04/12 05:01:37;;;;;;;13.25;3.20;;;7.40;99.90;;;;;;5081133;28;20067;-90
2023/04/12 05:04:02;;;;;;;16.50;3.85;;;7.30;99.90;;;;;;5092526;28;20078;-89
2023/04/12 05:06:28;;;;;;;13.48;3.35;;;7.30;99.90;;;;;;5092639;28;20143;-88
2023/04/12 05:08:55;;;;;;;13.60;3.28;;;7.30;99.90;;;;;;5092655;28;20043;-88
2023/04/12 05:11:20;;;;;;;13.60;3.70;;;7.30;99.90;;;;;;5092803;28;20186;-91
2023/04/12 05:13:46;;;;;;;12.32;3.63;;;7.70;99.90;;;;;;5093715;28;20067;-91
2023/04/12 05:16:12;;;;;;;10.77;3.60;;;7.40;99.90;;;;;;5093882;28;20057;-90
2023/04/12 05:18:38;;;;;;;12.75;3.38;;;7.30;99.90;;;;;;5092913;28;20104;-90
2023/04/12 05:21:04;;;;;;;16.63;4.47;;;7.30;99.90;;;;;;5092070;28;20043;-91
2023/04/12 05:23:35;;;;;;;11.18;3.45;;;7.20;99.90;;;;;;5092959;28;20071;-91
2023/04/12 05:26:00;;;;;;;12.55;3.70;;;7.20;99.90;;;;;;5093003;28;20039;-89
2023/04/12 05:28:26;;;;;;;12.98;3.90;;;7.30;99.90;;;;;;5087574;28;20461;-90
2023/04/12 05:30:52;;;;;;;10.25;3.03;;;7.60;99.90;;;;;;5084353;28;20063;-91
2023/04/12 05:33:17;;;;;;;10.57;3.55;;;7.20;99.90;;;;;;5093006;28;20082;-90
2023/04/12 05:35:43;;;;;;;14.80;3.50;;;7.20;99.90;;;;;;5090276;28;20063;-91
2023/04/12 05:38:09;;;;;;;11.68;3.00;;;7.20;99.90;;;;;;5085988;28;20040;-91
2023/04/12 05:40:35;;;;;;;15.65;3.45;;;7.20;99.90;;;;;;5084416;28;20847;-92
2023/04/12 05:43:01;;;;;;;22.00;4.78;;;7.20;99.90;;;;;;5093394;28;20043;-92
2023/04/12 05:45:27;;;;;;;13.10;3.72;;;7.20;99.90;;;;;;5092406;28;20125;-91
2023/04/12 05:47:54;;;;;;;15.43;3.10;;;7.20;99.90;;;;;;5093275;28;20115;-92
2023/04/12 05:50:20;;;;;;;14.60;2.95;;;7.20;99.90;;;;;;5091665;28;20044;-92
2023/04/12 05:52:47;;;;;;;13.35;3.08;;;7.20;99.90;;;;;;5091861;28;20047;-91
2023/04/12 05:55:15;;;;;;;14.45;3.60;;;7.20;99.90;;;;;;5092642;28;20040;-91
2023/04/12 05:57:41;;;;;;;10.25;2.95;;;7.20;99.90;;;;;;5092464;28;20082;-91
2023/04/12 06:00:15;;;;;;;10.75;3.00;;;7.20;99.90;;;;;;5079916;28;20036;-91
2023/04/12 06:02:41;;;;;;;9.75;2.70;;;7.20;99.90;;;;;;5109700;28;20112;-91
2023/04/12 06:05:08;;;;;;;15.40;3.50;;;7.20;99.90;;;;;;5092246;28;20039;-91
2023/04/12 06:07:33;;;;;;;11.20;3.10;;;7.20;99.90;;;;;;5091103;28;20457;-91
2023/04/12 06:09:59;;;;;;;11.55;2.72;;;7.30;99.90;;;;;;5092572;28;20039;-92
2023/04/12 06:12:25;;;;;;;8.70;2.85;;;7.80;99.90;;;;;;5092093;28;20054;-91
2023/04/12 06:14:50;;;;;;;9.85;3.08;;;7.40;99.90;;;;;;5079362;28;20036;-92
2023/04/12 06:17:16;;;;;;;12.65;2.70;;;7.40;99.90;;;;;;5092385;28;20063;-92
2023/04/12 06:19:42;;;;;;;8.30;2.60;;;7.30;99.90;;;;;;5079108;28;20040;-91
2023/04/12 06:22:10;;;;;;;8.65;2.97;;;7.40;99.90;;;;;;5090569;28;20096;-91
2023/04/12 06:24:36;;;;;;;13.30;3.05;;;7.30;99.90;;;;;;5089806;28;20047;-91
2023/04/12 06:27:02;;;;;;;8.25;2.47;;;7.30;99.90;;;;;;5093164;27;20556;-91
2023/04/12 06:29:27;;;;;;;9.98;2.58;;;7.30;99.90;;;;;;5114511;28;20478;-91
2023/04/12 06:31:53;;;;;;;12.30;2.78;;;7.30;99.90;;;;;;5125249;27;20364;-91
2023/04/12 06:34:21;;;;;;;8.20;2.20;;;7.30;99.90;;;;;;5115082;27;20051;-91
2023/04/12 06:36:46;;;;;;;16.10;3.28;;;7.30;99.90;;;;;;5126429;28;20050;-91
2023/04/12 06:39:15;;;;;;;11.15;2.83;;;7.30;99.90;;;;;;5130598;27;20405;-93
2023/04/12 06:41:42;;;;;;;8.73;3.17;;;7.30;99.90;;;;;;5104005;28;20073;-92
2023/04/12 06:44:08;;;;;;;16.02;2.85;;;7.40;99.90;;;;;;5108481;28;20035;-92
2023/04/12 06:46:34;;;;;;;14.23;2.67;;;7.30;99.90;;;;;;5116533;28;20040;-92
2023/04/12 06:49:00;;;;;;;13.52;3.33;;;7.20;99.90;;;;;;5116948;27;20047;-92
2023/04/12 06:51:27;;;;;;;7.22;2.53;;;7.20;99.90;;;;;;5101557;28;20051;-93
2023/04/12 06:53:53;;;;;;;10.57;2.92;;;7.80;99.90;;;;;;5117777;27;20050;-91
2023/04/12 06:56:18;;;;;;;12.75;3.03;;;7.30;99.90;;;;;;5093364;28;20051;-90
2023/04/12 06:58:44;;;;;;;9.20;2.85;;;7.30;99.90;;;;;;5095577;28;20403;-91
2023/04/12 07:01:12;;;;;;;8.57;2.63;;;7.30;99.90;;;;;;5113057;27;20039;-90
2023/04/12 07:03:38;;;;;;;13.38;2.97;;;7.40;99.90;;;;;;5103403;28;20130;-92
2023/04/12 07:06:04;;;;;;;14.05;3.78;;;7.30;99.90;;;;;;5106634;28;20118;-91
2023/04/12 07:08:33;;;;;;;8.40;3.10;;;7.30;99.90;;;;;;5105266;27;20058;-92
2023/04/12 07:10:59;;;;;;;11.40;3.30;;;7.40;99.90;;;;;;5105945;27;20411;-92
2023/04/12 07:13:25;;;;;;;13.55;3.03;;;7.40;99.90;;;;;;5112595;27;20045;-92
2023/04/12 07:15:51;;;;;;;10.85;3.13;;;7.40;99.90;;;;;;5108864;27;20036;-92
2023/04/12 07:18:17;;;;;;;15.65;3.38;;;7.40;99.90;;;;;;5119753;27;20050;-93
2023/04/12 07:20:49;;;;;;;9.23;2.80;;;7.40;99.90;;;;;;5114296;27;20035;-89
2023/04/12 07:23:15;;;;;;;11.15;3.08;;;7.40;99.90;;;;;;5108035;27;20236;-93
2023/04/12 07:25:41;;;;;;;13.73;3.65;;;7.90;99.90;;;;;;5114695;27;20112;-93
2023/04/12 07:28:07;;;;;;;10.50;2.78;;;7.40;99.90;;;;;;5115965;27;20065;-94
2023/04/12 07:30:33;;;;;;;11.68;3.35;;;7.40;99.90;;;;;;5114666;27;20055;-94
2023/04/12 07:33:04;;;;;;;12.07;3.80;;;7.40;99.90;;;;;;5114835;27;20055;-94
2023/04/12 07:35:30;;;;;;;14.32;3.53;;;7.40;99.90;;;;;;5101330;27;20136;-92
2023/04/12 07:37:56;;;;;;;12.25;3.42;;;7.80;99.90;;;;;;5099761;28;20040;-92
2023/04/12 07:40:22;;;;;;;12.70;3.47;;;7.40;99.90;;;;;;5093966;28;20629;-92
2023/04/12 07:42:48;;;;;;;9.98;3.28;;;7.40;99.90;;;;;;5094010;28;20055;-92
2023/04/12 07:45:13;;;;;;;9.85;3.05;;;7.40;99.90;;;;;;5104635;27;20096;-93
2023/04/12 07:47:39;;;;;;;10.15;3.13;;;7.50;99.90;;;;;;5106809;27;20102;-93
2023/04/12 07:50:06;;;;;;;10.15;3.42;;;7.50;99.90;;;;;;5107221;28;20538;-93
2023/04/12 07:52:32;;;;;;;9.70;2.80;;;7.50;99.90;;;;;;5101917;27;20077;-92
2023/04/12 07:54:58;;;;;;;9.25;3.10;;;7.50;99.90;;;;;;5113699;27;20039;-93
2023/04/12 07:57:23;;;;;;;7.50;2.50;;;7.50;99.90;;;;;;5110003;27;20061;-94
2023/04/12 07:59:53;;;;;;;10.13;2.40;;;7.50;99.90;;;;;;5115689;27;20507;-96
2023/04/12 08:02:23;;;;;;;8.57;2.65;;;7.10;99.90;;;;;;5111400;28;20483;-95
2023/04/12 08:04:50;;;;;;;10.68;2.35;;;7.50;99.90;;;;;;5107466;27;20043;-93
2023/04/12 08:07:22;;;;;;;8.05;2.63;;;7.60;99.90;;;;;;5112327;28;20043;-94
2023/04/12 08:09:48;;;;;;;6.68;2.60;;;7.50;99.90;;;;;;5098764;27;20074;-94
2023/04/12 08:12:14;;;;;;;7.30;2.67;;;7.50;99.90;;;;;;5100675;28;20152;-92
2023/04/12 08:14:40;;;;;;;4.88;2.25;;;7.50;99.90;;;;;;5112167;27;20062;-92
2023/04/12 08:17:06;;;;;;;5.70;2.58;;;7.60;99.90;;;;;;5104358;27;20050;-94
2023/04/12 08:19:32;;;;;;;6.45;2.42;;;7.60;99.90;;;;;;5113068;27;20039;-94
2023/04/12 08:21:57;;;;;;;6.05;2.25;;;7.60;99.90;;;;;;5114649;27;20046;-95
2023/04/12 08:24:23;;;;;;;5.47;2.72;;;7.70;99.90;;;;;;5116969;27;20925;-93
2023/04/12 08:26:50;;;;;;;5.30;2.65;;;7.70;99.90;;;;;;5117526;27;20070;-92
2023/04/12 08:29:17;;;;;;;6.22;2.55;;;7.70;99.90;;;;;;5116718;27;20475;-91
2023/04/12 08:31:43;;;;;;;5.63;2.95;;;7.80;99.90;;;;;;5119892;27;20565;-93
2023/04/12 08:34:08;;;;;;;7.15;2.85;;;8.20;99.90;;;;;;5117747;27;20085;-93
2023/04/12 08:36:34;;;;;;;6.93;2.80;;;8.30;99.90;;;;;;5115927;27;20038;-91
2023/04/12 08:39:00;;;;;;;7.20;2.72;;;8.00;99.90;;;;;;5102214;27;20039;-92
2023/04/12 08:41:26;;;;;;;5.28;2.63;;;8.00;99.90;;;;;;5115308;27;20043;-93
2023/04/12 08:43:54;;;;;;;4.50;2.10;;;8.10;99.90;;;;;;5119510;27;20083;-92
2023/04/12 08:46:20;;;;;;;6.78;2.15;;;8.10;99.90;;;;;;5122009;27;20042;-93
2023/04/12 08:48:49;;;;;;;6.13;2.47;;;8.10;99.90;;;;;;5125888;27;20039;-91
2023/04/12 08:51:17;;;;;;;8.88;2.83;;;8.10;99.90;;;;;;5117474;27;20030;-94
2023/04/12 08:53:43;;;;;;;7.22;3.20;;;8.10;99.90;;;;;;5109646;27;20066;-93
2023/04/12 08:56:10;;;;;;;9.18;2.63;;;8.10;99.90;;;;;;5115713;27;20042;-93
2023/04/12 08:58:40;;;;;;;8.30;2.60;;;8.10;99.90;;;;;;5121463;27;20043;-94
2023/04/12 09:01:13;;;;;;;7.07;2.70;;;8.10;99.90;;;;;;5102894;27;20107;-96
2023/04/12 09:03:39;;;;;;;4.28;2.55;;;8.20;99.90;;;;;;5114497;27;20078;-95
2023/04/12 09:06:05;;;;;;;5.40;2.78;;;8.30;99.90;;;;;;5119357;27;20587;-94
2023/04/12 09:08:31;;;;;;;5.95;2.67;;;8.30;99.90;;;;;;5118505;27;20129;-94
2023/04/12 09:10:57;;;;;;;5.65;2.90;;;8.80;99.90;;;;;;5118796;27;20131;-94
2023/04/12 09:13:34;;;;;;;5.25;3.40;;;8.30;99.90;;;;;;5118325;27;20065;-92
2023/04/12 09:16:00;;;;;;;5.70;3.10;;;8.40;99.90;;;;;;5118814;27;20042;-94
2023/04/12 09:18:27;;;;;;;7.15;3.03;;;8.50;99.90;;;;;;5115599;27;20099;-93
2023/04/12 09:21:07;;;;;;;6.05;3.15;;;8.50;99.90;;;;;;5114451;27;20533;-92
2023/04/12 09:23:35;;;;;;;5.95;3.08;;;8.60;99.90;;;;;;5124865;27;20493;-93
2023/04/12 09:26:01;;;;;;;7.00;2.97;;;8.70;99.90;;;;;;5107521;27;20405;-94
2023/04/12 09:28:28;;;;;;;3.95;2.65;;;8.70;99.90;;;;;;5114810;27;20051;-94
2023/04/12 09:30:56;;;;;;;4.20;2.65;;;8.70;99.90;;;;;;5120564;27;20039;-96
2023/04/12 09:33:31;;;;;;;5.55;2.72;;;8.80;99.90;;;;;;5123978;27;20086;-92
2023/04/12 09:36:02;;;;;;;4.65;2.45;;;8.70;99.90;;;;;;5114529;27;20100;-91
2023/04/12 09:38:29;;;;;;;4.28;3.10;;;8.80;99.90;;;;;;5104688;28;20050;-92
2023/04/12 09:40:55;;;;;;;5.68;3.10;;;8.80;99.90;;;;;;5105947;27;20424;-90
2023/04/12 09:43:38;;;;;;;5.50;3.30;;;8.80;99.90;;;;;;5098811;27;20506;-93
2023/04/12 09:46:12;;;;;;;6.80;3.92;;;8.90;99.90;;;;;;5112969;27;20130;-91
2023/04/12 09:48:40;;;;;;;7.90;3.80;;;9.00;99.90;;;;;;5101464;27;20039;-90
2023/04/12 09:51:07;;;;;;;7.63;4.70;;;9.10;99.90;;;;;;5112836;27;20131;-91
2023/04/12 09:53:39;;;;;;;5.45;3.65;;;9.40;99.90;;;;;;5112316;27;20042;-93
2023/04/12 09:56:07;;;;;;;6.05;3.97;;;9.50;99.90;;;;;;5104098;27;20126;-92
2023/04/12 09:58:36;;;;;;;9.60;3.63;;;9.70;99.90;;;;;;5112990;27;20038;-91
2023/04/12 10:01:03;;;;;;;6.65;3.55;;;10.00;99.90;;;;;;5113732;27;20039;-91
2023/04/12 10:03:29;;;;;;;6.25;3.80;;;10.20;99.90;;;;;;5104992;27;20074;-92
2023/04/12 10:05:55;;;;;;;5.22;3.50;;;10.40;99.90;;;;;;5124969;27;20085;-93
2023/04/12 10:08:23;;;;;;;6.03;3.70;;;10.50;99.90;;;;;;5115487;27;20039;-93
2023/04/12 10:10:48;;;;;;;5.88;3.30;;;10.50;99.90;;;;;;5096842;27;20019;-91
2023/04/12 10:13:16;;;;;;;7.38;3.13;;;10.50;99.90;;;;;;5113164;27;20443;-91
2023/04/12 10:15:45;;;;;;;6.22;3.70;;;10.50;99.90;;;;;;5104973;27;20106;-91
2023/04/12 10:18:13;;;;;;;5.75;3.80;;;10.60;99.90;;;;;;5111537;27;20074;-92
2023/04/12 10:20:40;;;;;;;5.45;3.35;;;10.70;99.90;;;;;;5106012;28;20122;-92
2023/04/12 10:23:08;;;;;;;9.07;3.30;;;10.70;99.90;;;;;;5113701;27;20039;-92
2023/04/12 10:25:33;;;;;;;8.68;4.05;;;10.70;99.90;;;;;;5107293;28;20053;-91
2023/04/12 10:28:17;;;;;;;12.90;4.15;;;10.80;99.90;;;;;;5112461;28;20158;-91
2023/04/12 10:30:43;;;;;;;9.35;3.55;;;10.80;99.90;;;;;;5105456;28;20427;-93
2023/04/12 10:33:15;;;;;;;7.25;3.72;;;11.00;99.90;;;;;;5109883;28;20047;-92
2023/04/12 10:35:55;;;;;;;11.10;4.00;;;11.20;99.90;;;;;;5108675;27;20035;-92
2023/04/12 10:38:25;;;;;;;7.57;3.40;;;11.50;99.90;;;;;;5100248;27;20051;-92
2023/04/12 10:41:13;;;;;;;11.25;3.63;;;11.60;99.90;;;;;;5103815;28;20048;-92
2023/04/12 10:43:41;;;;;;;8.05;3.08;;;11.90;99.90;;;;;;5119074;27;20043;-90
2023/04/12 10:46:06;;;;;;;8.32;3.42;;;12.10;99.90;;;;;;5124860;27;20090;-91
2023/04/12 10:48:34;;;;;;;5.65;2.97;;;12.30;99.90;;;;;;5115712;27;20130;-92
2023/04/12 10:51:13;;;;;;;6.20;3.13;;;12.50;99.90;;;;;;5108592;28;20036;-92
2023/04/12 10:53:39;;;;;;;9.52;2.58;;;12.60;99.90;;;;;;5114278;27;20070;-90
2023/04/12 10:56:39;;;;;;;9.65;3.05;;;12.50;99.90;;;;;;5111959;27;20058;-90
2023/04/12 10:59:06;;;;;;;9.95;2.70;;;12.50;99.90;;;;;;5112152;27;20482;-92
2023/04/12 11:02:06;;;;;;;9.85;3.05;;;12.50;99.90;;;;;;5103570;28;20122;-95
2023/04/12 11:04:31;;;;;;;13.77;2.30;;;12.60;99.90;;;;;;5114287;27;20050;-90
2023/04/12 11:07:01;;;;;;;10.38;2.50;;;12.70;99.90;;;;;;5115143;27;20039;-91
2023/04/12 11:09:42;;;;;;;6.85;2.63;;;12.60;99.90;;;;;;5109487;27;20075;-91
2023/04/12 11:12:09;;;;;;;13.32;2.33;;;12.60;99.90;;;;;;5117508;27;20507;-91
2023/04/12 11:14:37;;;;;;;8.45;2.58;;;12.50;99.90;;;;;;5118072;27;20447;-91
2023/04/12 11:17:05;;;;;;;11.45;2.42;;;12.50;99.90;;;;;;5117043;27;20536;-90
2023/04/12 11:19:33;;;;;;;9.27;2.58;;;12.60;99.90;;;;;;5117051;27;20047;-90
2023/04/12 11:22:01;;;;;;;10.57;2.60;;;12.60;99.90;;;;;;5113841;27;20427;-89
2023/04/12 11:24:27;;;;;;;7.68;1.95;;;12.70;99.90;;;;;;5119524;27;20066;-88
2023/04/12 11:26:53;;;;;;;7.63;2.38;;;12.80;99.90;;;;;;5119195;27;20058;-90
2023/04/12 11:29:23;;;;;;;11.02;2.78;;;12.90;99.90;;;;;;5108572;27;20142;-88
2023/04/12 11:31:49;;;;;;;9.82;1.90;;;13.00;99.90;;;;;;5122902;27;20043;-88
2023/04/12 11:34:17;;;;;;;9.60;2.13;;;13.00;99.90;;;;;;5119065;27;20065;-87
2023/04/12 11:36:45;;;;;;;18.58;3.05;;;13.00;99.90;;;;;;5105769;27;20569;-87
2023/04/12 11:39:12;;;;;;;10.35;2.63;;;12.90;99.90;;;;;;5135498;27;20042;-88
2023/04/12 11:41:44;;;;;;;8.00;1.95;;;12.90;99.90;;;;;;5098047;27;20147;-88
2023/04/12 11:44:11;;;;;;;9.93;2.25;;;12.90;99.90;;;;;;5111667;27;20039;-89
2023/04/12 11:46:37;;;;;;;12.75;2.60;;;12.90;99.90;;;;;;5118803;27;20869;-88
2023/04/12 11:49:03;;;;;;;17.50;2.40;;;13.00;99.90;;;;;;5103944;27;20498;-88
2023/04/12 11:51:30;;;;;;;11.93;2.78;;;13.10;99.90;;;;;;5108289;27;20039;-87
2023/04/12 11:53:57;;;;;;;14.27;2.42;;;13.10;99.90;;;;;;5111661;27;20111;-87
2023/04/12 11:56:24;;;;;;;11.30;2.38;;;13.00;99.90;;;;;;5104405;27;20070;-88
2023/04/12 11:58:50;;;;;;;13.98;2.28;;;12.90;99.90;;;;;;5115456;27;20455;-87
2023/04/12 12:01:18;;;;;;;15.15;2.67;;;12.90;99.90;;;;;;5105573;27;20046;-87
2023/04/12 12:03:44;;;;;;;13.13;2.55;;;12.80;99.90;;;;;;5115492;27;20537;-88
2023/04/12 12:06:11;;;;;;;10.82;2.78;;;12.90;99.90;;;;;;5095956;27;20043;-88
2023/04/12 12:08:37;;;;;;;13.10;2.63;;;12.90;99.90;;;;;;5111265;27;20535;-87
2023/04/12 12:11:03;;;;;;;15.18;2.90;;;13.00;99.90;;;;;;5097652;27;20596;-86
2023/04/12 12:13:49;;;;;;;14.57;2.47;;;13.20;99.90;;;;;;5112829;27;20049;-87
2023/04/12 12:16:16;;;;;;;11.75;2.13;;;13.30;99.90;;;;;;5117620;27;20038;-87
2023/04/12 12:18:43;;;;;;;16.60;2.58;;;13.30;99.90;;;;;;5117356;27;20031;-89
2023/04/12 12:21:09;;;;;;;16.67;2.40;;;13.30;99.90;;;;;;5104339;27;20047;-88
2023/04/12 12:23:35;;;;;;;15.10;2.47;;;13.20;99.90;;;;;;5116538;27;20305;-88
2023/04/12 12:26:02;;;;;;;22.08;2.90;;;13.10;99.90;;;;;;5117198;27;20134;-88
2023/04/12 12:28:29;;;;;;;16.60;2.67;;;13.00;99.90;;;;;;5097960;27;20309;-88
2023/04/12 12:30:56;;;;;;;13.77;2.50;;;12.90;99.90;;;;;;5109416;27;20051;-88
2023/04/12 12:33:23;;;;;;;14.65;2.50;;;12.90;99.90;;;;;;5102599;27;20107;-88
2023/04/12 12:35:56;;;;;;;17.17;2.45;;;12.80;99.90;;;;;;5103597;27;20489;-88
2023/04/12 12:38:22;;;;;;;13.10;2.13;;;12.90;99.90;;;;;;5100414;27;20167;-87
2023/04/12 12:40:49;;;;;;;15.52;2.55;;;12.90;99.90;;;;;;5116118;27;20470;-87
2023/04/12 12:43:19;;;;;;;15.27;2.25;;;13.00;99.90;;;;;;5103429;27;20054;-88
2023/04/12 12:45:45;;;;;;;17.73;2.88;;;13.00;99.90;;;;;;5101777;27;20050;-88
2023/04/12 12:48:12;;;;;;;15.10;3.05;;;12.90;99.90;;;;;;5096068;27;20041;-88
2023/04/12 12:50:38;;;;;;;14.55;2.38;;;12.80;99.90;;;;;;5097080;27;20035;-88